<?xml version='1.0' encoding='UTF-8'?><gpx version="1.1" creator="JPX - https://github.com/jenetics/jpx" xmlns="http://www.topografix.com/GPX/1/1"><trk><trkseg><trkpt lat="44.3327594" lon="7.4036939"><ele>699.0</ele><time>2026-04-01T12:43:05.031Z</time></trkpt><trkpt lat="44.3328249" lon="7.4037791"><ele>699.0</ele><time>2026-04-01T12:43:07.028Z</time></trkpt><trkpt lat="44.3328938" lon="7.4038074"><ele>699.0</ele><time>2026-04-01T12:43:09.028Z</time></trkpt><trkpt lat="44.3329669" lon="7.4037865"><ele>699.0</ele><time>2026-04-01T12:43:11.028Z</time></trkpt><trkpt lat="44.3330135" lon="7.4036565"><ele>699.0</ele><time>2026-04-01T12:43:13.027Z</time></trkpt><trkpt lat="44.3330173" lon="7.4035647"><ele>699.0</ele><time>2026-04-01T12:43:14.028Z</time></trkpt><trkpt lat="44.333001" lon="7.4034596"><ele>699.0</ele><time>2026-04-01T12:43:15.026Z</time></trkpt><trkpt lat="44.3329823" lon="7.4033566"><ele>699.0</ele><time>2026-04-01T12:43:16.03Z</time></trkpt><trkpt lat="44.332969" lon="7.4032517"><ele>699.0</ele><time>2026-04-01T12:43:17.027Z</time></trkpt><trkpt lat="44.3329533" lon="7.4031334"><ele>699.0</ele><time>2026-04-01T12:43:18.028Z</time></trkpt><trkpt lat="44.3329339" lon="7.4029955"><ele>699.0</ele><time>2026-04-01T12:43:19.027Z</time></trkpt><trkpt lat="44.3329145" lon="7.4028421"><ele>699.0</ele><time>2026-04-01T12:43:20.027Z</time></trkpt><trkpt lat="44.3328987" lon="7.4026893"><ele>699.0</ele><time>2026-04-01T12:43:21.022Z</time></trkpt><trkpt lat="44.3328739" lon="7.4025207"><ele>699.0</ele><time>2026-04-01T12:43:22.023Z</time></trkpt><trkpt lat="44.3328454" lon="7.4023406"><ele>699.0</ele><time>2026-04-01T12:43:23.025Z</time></trkpt><trkpt lat="44.3328167" lon="7.4021659"><ele>699.75</ele><time>2026-04-01T12:43:24.024Z</time></trkpt><trkpt lat="44.3327885" lon="7.4019888"><ele>700.5</ele><time>2026-04-01T12:43:25.022Z</time></trkpt><trkpt lat="44.3327617" lon="7.4018136"><ele>701.25</ele><time>2026-04-01T12:43:26.024Z</time></trkpt><trkpt lat="44.3327362" lon="7.4016342"><ele>702.0</ele><time>2026-04-01T12:43:27.025Z</time></trkpt><trkpt lat="44.3327055" lon="7.4014353"><ele>702.5</ele><time>2026-04-01T12:43:28.026Z</time></trkpt><trkpt lat="44.3326731" lon="7.4012306"><ele>703.0</ele><time>2026-04-01T12:43:29.027Z</time></trkpt><trkpt lat="44.3326461" lon="7.4010376"><ele>703.5</ele><time>2026-04-01T12:43:30.025Z</time></trkpt><trkpt lat="44.3326205" lon="7.4008453"><ele>704.0</ele><time>2026-04-01T12:43:31.026Z</time></trkpt><trkpt lat="44.3325927" lon="7.4006518"><ele>704.75</ele><time>2026-04-01T12:43:32.027Z</time></trkpt><trkpt lat="44.3325665" lon="7.4004723"><ele>705.5</ele><time>2026-04-01T12:43:33.024Z</time></trkpt><trkpt lat="44.3325422" lon="7.4003178"><ele>706.25</ele><time>2026-04-01T12:43:34.027Z</time></trkpt><trkpt lat="44.3325083" lon="7.4001361"><ele>707.0</ele><time>2026-04-01T12:43:35.026Z</time></trkpt><trkpt lat="44.3324783" lon="7.3999505"><ele>707.0</ele><time>2026-04-01T12:43:36.032Z</time></trkpt><trkpt lat="44.3324504" lon="7.399765"><ele>707.0</ele><time>2026-04-01T12:43:37.028Z</time></trkpt><trkpt lat="44.3324561" lon="7.3995932"><ele>707.0</ele><time>2026-04-01T12:43:38.022Z</time></trkpt><trkpt lat="44.3324523" lon="7.3994002"><ele>707.0</ele><time>2026-04-01T12:43:39.022Z</time></trkpt><trkpt lat="44.3324628" lon="7.3992049"><ele>707.75</ele><time>2026-04-01T12:43:40.025Z</time></trkpt><trkpt lat="44.3324766" lon="7.3990211"><ele>708.5</ele><time>2026-04-01T12:43:41.025Z</time></trkpt><trkpt lat="44.332482" lon="7.3988209"><ele>709.25</ele><time>2026-04-01T12:43:42.028Z</time></trkpt><trkpt lat="44.3324903" lon="7.3986256"><ele>710.0</ele><time>2026-04-01T12:43:43.029Z</time></trkpt><trkpt lat="44.3324996" lon="7.3984194"><ele>711.25</ele><time>2026-04-01T12:43:44.027Z</time></trkpt><trkpt lat="44.3325145" lon="7.3982229"><ele>712.5</ele><time>2026-04-01T12:43:45.024Z</time></trkpt><trkpt lat="44.3325274" lon="7.3980384"><ele>713.75</ele><time>2026-04-01T12:43:46.024Z</time></trkpt><trkpt lat="44.3325412" lon="7.3978817"><ele>715.0</ele><time>2026-04-01T12:43:47.025Z</time></trkpt><trkpt lat="44.3325502" lon="7.3977326"><ele>715.1666666666667</ele><time>2026-04-01T12:43:48.025Z</time></trkpt><trkpt lat="44.3325553" lon="7.3976166"><ele>715.3333333333334</ele><time>2026-04-01T12:43:49.025Z</time></trkpt><trkpt lat="44.3325492" lon="7.3974641"><ele>715.5</ele><time>2026-04-01T12:43:51.026Z</time></trkpt><trkpt lat="44.3325074" lon="7.3973829"><ele>715.6666666666666</ele><time>2026-04-01T12:43:53.023Z</time></trkpt><trkpt lat="44.3324831" lon="7.3972847"><ele>715.8333333333333</ele><time>2026-04-01T12:43:56.02Z</time></trkpt><trkpt lat="44.3325198" lon="7.3971874"><ele>716.0</ele><time>2026-04-01T12:43:58.029Z</time></trkpt><trkpt lat="44.3325455" lon="7.3970887"><ele>716.4</ele><time>2026-04-01T12:44:00.033Z</time></trkpt><trkpt lat="44.3325617" lon="7.3969665"><ele>716.8</ele><time>2026-04-01T12:44:03.025Z</time></trkpt><trkpt lat="44.3325945" lon="7.3967971"><ele>717.1999999999999</ele><time>2026-04-01T12:44:05.026Z</time></trkpt><trkpt lat="44.3326103" lon="7.3966863"><ele>717.5999999999999</ele><time>2026-04-01T12:44:06.032Z</time></trkpt><trkpt lat="44.3326169" lon="7.3965487"><ele>718.0</ele><time>2026-04-01T12:44:07.029Z</time></trkpt><trkpt lat="44.3326307" lon="7.3964368"><ele>718.6666666666667</ele><time>2026-04-01T12:44:08.026Z</time></trkpt><trkpt lat="44.3326377" lon="7.3963203"><ele>719.3333333333334</ele><time>2026-04-01T12:44:09.024Z</time></trkpt><trkpt lat="44.3326487" lon="7.3962023"><ele>720.0</ele><time>2026-04-01T12:44:10.024Z</time></trkpt><trkpt lat="44.3326652" lon="7.3961002"><ele>720.6666666666666</ele><time>2026-04-01T12:44:11.032Z</time></trkpt><trkpt lat="44.3326655" lon="7.3959918"><ele>721.3333333333333</ele><time>2026-04-01T12:44:12.033Z</time></trkpt><trkpt lat="44.3326688" lon="7.3958842"><ele>722.0</ele><time>2026-04-01T12:44:13.031Z</time></trkpt><trkpt lat="44.3326762" lon="7.3957765"><ele>722.0</ele><time>2026-04-01T12:44:14.033Z</time></trkpt><trkpt lat="44.3326781" lon="7.3956642"><ele>722.0</ele><time>2026-04-01T12:44:15.027Z</time></trkpt><trkpt lat="44.332671" lon="7.3955526"><ele>722.0</ele><time>2026-04-01T12:44:16.025Z</time></trkpt><trkpt lat="44.3326941" lon="7.3953977"><ele>722.0</ele><time>2026-04-01T12:44:18.031Z</time></trkpt><trkpt lat="44.3327645" lon="7.3954489"><ele>722.0</ele><time>2026-04-01T12:44:21.033Z</time></trkpt><trkpt lat="44.332766" lon="7.3956322"><ele>722.0</ele><time>2026-04-01T12:44:23.031Z</time></trkpt><trkpt lat="44.3327998" lon="7.3957595"><ele>722.0</ele><time>2026-04-01T12:44:24.027Z</time></trkpt><trkpt lat="44.3328472" lon="7.3959327"><ele>722.0</ele><time>2026-04-01T12:44:25.025Z</time></trkpt><trkpt lat="44.3328866" lon="7.3960969"><ele>722.0</ele><time>2026-04-01T12:44:26.032Z</time></trkpt><trkpt lat="44.3329333" lon="7.3962679"><ele>721.0</ele><time>2026-04-01T12:44:27.03Z</time></trkpt><trkpt lat="44.3329791" lon="7.3964426"><ele>720.0</ele><time>2026-04-01T12:44:28.027Z</time></trkpt><trkpt lat="44.3330205" lon="7.3966158"><ele>719.0</ele><time>2026-04-01T12:44:29.024Z</time></trkpt><trkpt lat="44.3330523" lon="7.3967911"><ele>718.0</ele><time>2026-04-01T12:44:30.027Z</time></trkpt><trkpt lat="44.3330774" lon="7.396954"><ele>722.6666666666667</ele><time>2026-04-01T12:44:31.03Z</time></trkpt><trkpt lat="44.3330773" lon="7.3971039"><ele>727.3333333333334</ele><time>2026-04-01T12:44:32.029Z</time></trkpt><trkpt lat="44.3330824" lon="7.397208"><ele>732.0</ele><time>2026-04-01T12:44:33.03Z</time></trkpt><trkpt lat="44.3330945" lon="7.397301"><ele>736.6666666666666</ele><time>2026-04-01T12:44:34.031Z</time></trkpt><trkpt lat="44.3331464" lon="7.3973684"><ele>741.3333333333333</ele><time>2026-04-01T12:44:36.03Z</time></trkpt><trkpt lat="44.3332016" lon="7.3972823"><ele>746.0</ele><time>2026-04-01T12:44:38.028Z</time></trkpt><trkpt lat="44.333239" lon="7.3971715"><ele>746.0</ele><time>2026-04-01T12:44:39.03Z</time></trkpt><trkpt lat="44.3332814" lon="7.3970224"><ele>746.0</ele><time>2026-04-01T12:44:40.031Z</time></trkpt><trkpt lat="44.3333384" lon="7.3968717"><ele>746.0</ele><time>2026-04-01T12:44:41.031Z</time></trkpt><trkpt lat="44.3333976" lon="7.3966834"><ele>746.0</ele><time>2026-04-01T12:44:42.027Z</time></trkpt><trkpt lat="44.3334375" lon="7.3965162"><ele>746.0</ele><time>2026-04-01T12:44:43.028Z</time></trkpt><trkpt lat="44.3334806" lon="7.3963439"><ele>746.0</ele><time>2026-04-01T12:44:44.025Z</time></trkpt><trkpt lat="44.3335203" lon="7.3961798"><ele>746.0</ele><time>2026-04-01T12:44:45.034Z</time></trkpt><trkpt lat="44.3335455" lon="7.396009"><ele>746.0</ele><time>2026-04-01T12:44:46.028Z</time></trkpt><trkpt lat="44.3335844" lon="7.3958492"><ele>746.25</ele><time>2026-04-01T12:44:47.028Z</time></trkpt><trkpt lat="44.3336057" lon="7.3956832"><ele>746.5</ele><time>2026-04-01T12:44:48.03Z</time></trkpt><trkpt lat="44.3336301" lon="7.395514"><ele>746.75</ele><time>2026-04-01T12:44:49.026Z</time></trkpt><trkpt lat="44.3336559" lon="7.395345"><ele>747.0</ele><time>2026-04-01T12:44:50.028Z</time></trkpt><trkpt lat="44.3336733" lon="7.3951981"><ele>747.0</ele><time>2026-04-01T12:44:51.036Z</time></trkpt><trkpt lat="44.3337199" lon="7.3950512"><ele>747.0</ele><time>2026-04-01T12:44:52.026Z</time></trkpt><trkpt lat="44.3337545" lon="7.3949136"><ele>747.0</ele><time>2026-04-01T12:44:53.031Z</time></trkpt><trkpt lat="44.3337851" lon="7.3947635"><ele>747.0</ele><time>2026-04-01T12:44:54.026Z</time></trkpt><trkpt lat="44.333818" lon="7.3946111"><ele>747.0</ele><time>2026-04-01T12:44:55.025Z</time></trkpt><trkpt lat="44.3338727" lon="7.3944643"><ele>752.75</ele><time>2026-04-01T12:44:56.035Z</time></trkpt><trkpt lat="44.3339232" lon="7.3943225"><ele>758.5</ele><time>2026-04-01T12:44:57.031Z</time></trkpt><trkpt lat="44.3339778" lon="7.3941745"><ele>764.25</ele><time>2026-04-01T12:44:58.032Z</time></trkpt><trkpt lat="44.334027" lon="7.3940439"><ele>770.0</ele><time>2026-04-01T12:44:59.026Z</time></trkpt><trkpt lat="44.3340769" lon="7.3939029"><ele>770.5</ele><time>2026-04-01T12:45:00.062Z</time></trkpt><trkpt lat="44.3341273" lon="7.3937579"><ele>771.0</ele><time>2026-04-01T12:45:01.028Z</time></trkpt><trkpt lat="44.3341895" lon="7.393611"><ele>771.5</ele><time>2026-04-01T12:45:02.03Z</time></trkpt><trkpt lat="44.3342395" lon="7.3934627"><ele>772.0</ele><time>2026-04-01T12:45:03.024Z</time></trkpt><trkpt lat="44.3342904" lon="7.3933115"><ele>772.0</ele><time>2026-04-01T12:45:04.027Z</time></trkpt><trkpt lat="44.334347" lon="7.3931515"><ele>772.0</ele><time>2026-04-01T12:45:05.036Z</time></trkpt><trkpt lat="44.3344188" lon="7.3929856"><ele>772.0</ele><time>2026-04-01T12:45:06.032Z</time></trkpt><trkpt lat="44.3344843" lon="7.3928314"><ele>772.0</ele><time>2026-04-01T12:45:07.028Z</time></trkpt><trkpt lat="44.3345408" lon="7.3926883"><ele>773.2</ele><time>2026-04-01T12:45:08.031Z</time></trkpt><trkpt lat="44.3346057" lon="7.3925783"><ele>774.4000000000001</ele><time>2026-04-01T12:45:09.027Z</time></trkpt><trkpt lat="44.3346724" lon="7.392471"><ele>775.5999999999999</ele><time>2026-04-01T12:45:10.037Z</time></trkpt><trkpt lat="44.334725" lon="7.3923472"><ele>776.8</ele><time>2026-04-01T12:45:11.025Z</time></trkpt><trkpt lat="44.3347097" lon="7.3922381"><ele>778.0</ele><time>2026-04-01T12:45:12.026Z</time></trkpt><trkpt lat="44.3346748" lon="7.39215"><ele>779.6666666666666</ele><time>2026-04-01T12:45:13.026Z</time></trkpt><trkpt lat="44.3346142" lon="7.3921043"><ele>781.3333333333333</ele><time>2026-04-01T12:45:14.025Z</time></trkpt><trkpt lat="44.3345366" lon="7.3920472"><ele>783.0</ele><time>2026-04-01T12:45:15.028Z</time></trkpt><trkpt lat="44.3344561" lon="7.3919637"><ele>784.6666666666667</ele><time>2026-04-01T12:45:16.028Z</time></trkpt><trkpt lat="44.3343918" lon="7.3918737"><ele>786.3333333333334</ele><time>2026-04-01T12:45:17.026Z</time></trkpt><trkpt lat="44.334372" lon="7.3917635"><ele>788.0</ele><time>2026-04-01T12:45:18.027Z</time></trkpt><trkpt lat="44.3343784" lon="7.3916653"><ele>788.0000000000001</ele><time>2026-04-01T12:45:19.033Z</time></trkpt><trkpt lat="44.334404" lon="7.3915713"><ele>788.0</ele><time>2026-04-01T12:45:20.029Z</time></trkpt><trkpt lat="44.3345066" lon="7.3915603"><ele>788.0</ele><time>2026-04-01T12:45:22.03Z</time></trkpt><trkpt lat="44.3345787" lon="7.3915944"><ele>788.0</ele><time>2026-04-01T12:45:23.029Z</time></trkpt><trkpt lat="44.3346552" lon="7.3916253"><ele>788.0000000000001</ele><time>2026-04-01T12:45:24.03Z</time></trkpt><trkpt lat="44.3347236" lon="7.3916199"><ele>788.0</ele><time>2026-04-01T12:45:25.033Z</time></trkpt><trkpt lat="44.3347988" lon="7.3915108"><ele>788.5999999999999</ele><time>2026-04-01T12:45:27.025Z</time></trkpt><trkpt lat="44.3347632" lon="7.3914246"><ele>789.1999999999999</ele><time>2026-04-01T12:45:28.028Z</time></trkpt><trkpt lat="44.33472" lon="7.3913324"><ele>789.8</ele><time>2026-04-01T12:45:29.032Z</time></trkpt><trkpt lat="44.3346769" lon="7.3912222"><ele>790.4</ele><time>2026-04-01T12:45:30.034Z</time></trkpt><trkpt lat="44.3346548" lon="7.3910659"><ele>791.0</ele><time>2026-04-01T12:45:31.03Z</time></trkpt><trkpt lat="44.3346333" lon="7.3909237"><ele>791.0</ele><time>2026-04-01T12:45:32.032Z</time></trkpt><trkpt lat="44.3346127" lon="7.3907666"><ele>791.0</ele><time>2026-04-01T12:45:33.03Z</time></trkpt><trkpt lat="44.3346301" lon="7.3906287"><ele>791.0</ele><time>2026-04-01T12:45:34.028Z</time></trkpt><trkpt lat="44.3346476" lon="7.3904983"><ele>791.0</ele><time>2026-04-01T12:45:35.029Z</time></trkpt><trkpt lat="44.3346764" lon="7.3903764"><ele>791.0</ele><time>2026-04-01T12:45:36.028Z</time></trkpt><trkpt lat="44.3347031" lon="7.3902604"><ele>794.1999999999999</ele><time>2026-04-01T12:45:37.036Z</time></trkpt><trkpt lat="44.3347366" lon="7.3901424"><ele>797.4</ele><time>2026-04-01T12:45:38.029Z</time></trkpt><trkpt lat="44.3347689" lon="7.3900232"><ele>800.6</ele><time>2026-04-01T12:45:39.026Z</time></trkpt><trkpt lat="44.3347976" lon="7.3899411"><ele>803.8</ele><time>2026-04-01T12:45:40.028Z</time></trkpt><trkpt lat="44.3348854" lon="7.389885"><ele>807.0</ele><time>2026-04-01T12:45:42.027Z</time></trkpt><trkpt lat="44.3349607" lon="7.3899967"><ele>807.0</ele><time>2026-04-01T12:45:44.027Z</time></trkpt><trkpt lat="44.3349857" lon="7.3900801"><ele>807.0</ele><time>2026-04-01T12:45:45.034Z</time></trkpt><trkpt lat="44.3350139" lon="7.390184"><ele>807.0</ele><time>2026-04-01T12:45:46.032Z</time></trkpt><trkpt lat="44.3350499" lon="7.3902789"><ele>807.0</ele><time>2026-04-01T12:45:47.039Z</time></trkpt><trkpt lat="44.3350861" lon="7.3903751"><ele>807.0</ele><time>2026-04-01T12:45:48.032Z</time></trkpt><trkpt lat="44.3351142" lon="7.3904838"><ele>807.0</ele><time>2026-04-01T12:45:49.028Z</time></trkpt><trkpt lat="44.3351415" lon="7.3906081"><ele>807.4000000000001</ele><time>2026-04-01T12:45:50.033Z</time></trkpt><trkpt lat="44.3351474" lon="7.3907417"><ele>807.8000000000001</ele><time>2026-04-01T12:45:51.03Z</time></trkpt><trkpt lat="44.3351534" lon="7.3908831"><ele>808.2</ele><time>2026-04-01T12:45:52.027Z</time></trkpt><trkpt lat="44.3351932" lon="7.3910122"><ele>808.6</ele><time>2026-04-01T12:45:53.028Z</time></trkpt><trkpt lat="44.3352634" lon="7.3911085"><ele>809.0</ele><time>2026-04-01T12:45:54.029Z</time></trkpt><trkpt lat="44.3353406" lon="7.391168"><ele>809.0</ele><time>2026-04-01T12:45:55.03Z</time></trkpt><trkpt lat="44.3354129" lon="7.3911477"><ele>809.0</ele><time>2026-04-01T12:45:56.031Z</time></trkpt><trkpt lat="44.3354813" lon="7.3910985"><ele>809.0</ele><time>2026-04-01T12:45:57.03Z</time></trkpt><trkpt lat="44.3355576" lon="7.3910137"><ele>809.0</ele><time>2026-04-01T12:45:58.024Z</time></trkpt><trkpt lat="44.335629" lon="7.3909036"><ele>809.0</ele><time>2026-04-01T12:45:59.03Z</time></trkpt><trkpt lat="44.3357077" lon="7.3907844"><ele>813.25</ele><time>2026-04-01T12:46:00.029Z</time></trkpt><trkpt lat="44.3357656" lon="7.3906666"><ele>817.5</ele><time>2026-04-01T12:46:01.03Z</time></trkpt><trkpt lat="44.3358309" lon="7.3905368"><ele>821.75</ele><time>2026-04-01T12:46:02.028Z</time></trkpt><trkpt lat="44.3358927" lon="7.3904003"><ele>826.0</ele><time>2026-04-01T12:46:03.035Z</time></trkpt><trkpt lat="44.3359653" lon="7.3902689"><ele>826.0</ele><time>2026-04-01T12:46:04.028Z</time></trkpt><trkpt lat="44.3360564" lon="7.3901616"><ele>826.0</ele><time>2026-04-01T12:46:05.03Z</time></trkpt><trkpt lat="44.336153" lon="7.3900535"><ele>826.0</ele><time>2026-04-01T12:46:06.023Z</time></trkpt><trkpt lat="44.3362467" lon="7.3899764"><ele>826.0</ele><time>2026-04-01T12:46:07.025Z</time></trkpt><trkpt lat="44.3363623" lon="7.3898928"><ele>826.75</ele><time>2026-04-01T12:46:08.026Z</time></trkpt><trkpt lat="44.3364969" lon="7.3897953"><ele>827.5</ele><time>2026-04-01T12:46:09.026Z</time></trkpt><trkpt lat="44.3366332" lon="7.3897148"><ele>828.25</ele><time>2026-04-01T12:46:10.023Z</time></trkpt><trkpt lat="44.3367578" lon="7.3896208"><ele>829.0</ele><time>2026-04-01T12:46:11.036Z</time></trkpt><trkpt lat="44.3369083" lon="7.3895621"><ele>829.0</ele><time>2026-04-01T12:46:12.028Z</time></trkpt><trkpt lat="44.3370296" lon="7.3895108"><ele>829.0</ele><time>2026-04-01T12:46:13.026Z</time></trkpt><trkpt lat="44.3371504" lon="7.3894588"><ele>829.0</ele><time>2026-04-01T12:46:14.03Z</time></trkpt><trkpt lat="44.3372755" lon="7.3894239"><ele>829.0</ele><time>2026-04-01T12:46:15.027Z</time></trkpt><trkpt lat="44.3374037" lon="7.3894215"><ele>833.5</ele><time>2026-04-01T12:46:16.034Z</time></trkpt><trkpt lat="44.3375508" lon="7.3894063"><ele>838.0</ele><time>2026-04-01T12:46:17.03Z</time></trkpt><trkpt lat="44.3376972" lon="7.3894159"><ele>842.5</ele><time>2026-04-01T12:46:18.029Z</time></trkpt><trkpt lat="44.3378496" lon="7.3894212"><ele>847.0</ele><time>2026-04-01T12:46:19.025Z</time></trkpt><trkpt lat="44.3380065" lon="7.3893909"><ele>850.5</ele><time>2026-04-01T12:46:20.027Z</time></trkpt><trkpt lat="44.3381571" lon="7.3893528"><ele>854.0</ele><time>2026-04-01T12:46:21.027Z</time></trkpt><trkpt lat="44.3383034" lon="7.3893245"><ele>857.5</ele><time>2026-04-01T12:46:22.029Z</time></trkpt><trkpt lat="44.3384326" lon="7.3892979"><ele>861.0</ele><time>2026-04-01T12:46:23.028Z</time></trkpt><trkpt lat="44.3385606" lon="7.3892855"><ele>861.0</ele><time>2026-04-01T12:46:24.028Z</time></trkpt><trkpt lat="44.338675" lon="7.3892759"><ele>861.0</ele><time>2026-04-01T12:46:25.027Z</time></trkpt><trkpt lat="44.3388049" lon="7.389255"><ele>861.0</ele><time>2026-04-01T12:46:26.028Z</time></trkpt><trkpt lat="44.3389417" lon="7.3892243"><ele>861.0</ele><time>2026-04-01T12:46:27.029Z</time></trkpt><trkpt lat="44.3391385" lon="7.3892595"><ele>863.75</ele><time>2026-04-01T12:46:28.031Z</time></trkpt><trkpt lat="44.3392494" lon="7.3892596"><ele>866.5</ele><time>2026-04-01T12:46:29.031Z</time></trkpt><trkpt lat="44.3393902" lon="7.3892278"><ele>869.25</ele><time>2026-04-01T12:46:30.035Z</time></trkpt><trkpt lat="44.3395285" lon="7.3892884"><ele>872.0</ele><time>2026-04-01T12:46:32.017Z</time></trkpt><trkpt lat="44.3396324" lon="7.3893419"><ele>872.4000000000001</ele><time>2026-04-01T12:46:33.026Z</time></trkpt><trkpt lat="44.3397382" lon="7.3894119"><ele>872.8000000000001</ele><time>2026-04-01T12:46:34.028Z</time></trkpt><trkpt lat="44.3398526" lon="7.3894936"><ele>873.2</ele><time>2026-04-01T12:46:35.026Z</time></trkpt><trkpt lat="44.3399405" lon="7.3895334"><ele>873.6</ele><time>2026-04-01T12:46:36.025Z</time></trkpt><trkpt lat="44.3400102" lon="7.3895629"><ele>874.0</ele><time>2026-04-01T12:46:37.032Z</time></trkpt><trkpt lat="44.3400884" lon="7.3895886"><ele>873.9999999999999</ele><time>2026-04-01T12:46:38.017Z</time></trkpt><trkpt lat="44.3401417" lon="7.3894721"><ele>874.0</ele><time>2026-04-01T12:46:39.026Z</time></trkpt><trkpt lat="44.3402032" lon="7.3893946"><ele>874.0</ele><time>2026-04-01T12:46:40.029Z</time></trkpt><trkpt lat="44.3402781" lon="7.3893317"><ele>874.0</ele><time>2026-04-01T12:46:41.025Z</time></trkpt><trkpt lat="44.3403448" lon="7.3892662"><ele>873.9999999999999</ele><time>2026-04-01T12:46:42.034Z</time></trkpt><trkpt lat="44.3403837" lon="7.3891658"><ele>874.0</ele><time>2026-04-01T12:46:43.026Z</time></trkpt><trkpt lat="44.3404185" lon="7.3890473"><ele>874.0</ele><time>2026-04-01T12:46:44.026Z</time></trkpt><trkpt lat="44.3404656" lon="7.3889105"><ele>874.0000000000001</ele><time>2026-04-01T12:46:45.027Z</time></trkpt><trkpt lat="44.3404988" lon="7.3887766"><ele>874.0000000000001</ele><time>2026-04-01T12:46:46.026Z</time></trkpt><trkpt lat="44.3405228" lon="7.3886441"><ele>874.0</ele><time>2026-04-01T12:46:47.023Z</time></trkpt><trkpt lat="44.3405369" lon="7.388537"><ele>874.0</ele><time>2026-04-01T12:46:48.024Z</time></trkpt><trkpt lat="44.340552" lon="7.3884304"><ele>877.0</ele><time>2026-04-01T12:46:49.026Z</time></trkpt><trkpt lat="44.3405829" lon="7.3883476"><ele>880.0000000000001</ele><time>2026-04-01T12:46:50.027Z</time></trkpt><trkpt lat="44.3406815" lon="7.3882239"><ele>883.0000000000001</ele><time>2026-04-01T12:46:52.034Z</time></trkpt><trkpt lat="44.3407579" lon="7.3881535"><ele>886.0</ele><time>2026-04-01T12:46:53.028Z</time></trkpt><trkpt lat="44.340872" lon="7.388095"><ele>889.0</ele><time>2026-04-01T12:46:54.028Z</time></trkpt><trkpt lat="44.3409827" lon="7.3880377"><ele>886.2</ele><time>2026-04-01T12:46:55.028Z</time></trkpt><trkpt lat="44.3410618" lon="7.3879804"><ele>883.4000000000001</ele><time>2026-04-01T12:46:56.025Z</time></trkpt><trkpt lat="44.3411447" lon="7.3879127"><ele>880.6</ele><time>2026-04-01T12:46:57.038Z</time></trkpt><trkpt lat="44.341213" lon="7.387834"><ele>877.8</ele><time>2026-04-01T12:46:58.03Z</time></trkpt><trkpt lat="44.3412737" lon="7.3877273"><ele>875.0</ele><time>2026-04-01T12:46:59.025Z</time></trkpt><trkpt lat="44.3413356" lon="7.387606"><ele>875.0</ele><time>2026-04-01T12:47:00.028Z</time></trkpt><trkpt lat="44.3413764" lon="7.3874579"><ele>875.0</ele><time>2026-04-01T12:47:01.026Z</time></trkpt><trkpt lat="44.3414167" lon="7.3873187"><ele>875.0</ele><time>2026-04-01T12:47:02.031Z</time></trkpt><trkpt lat="44.3414686" lon="7.387188"><ele>875.0</ele><time>2026-04-01T12:47:03.028Z</time></trkpt><trkpt lat="44.3415278" lon="7.3870555"><ele>875.0</ele><time>2026-04-01T12:47:04.028Z</time></trkpt><trkpt lat="44.3415652" lon="7.3869094"><ele>877.8571428571429</ele><time>2026-04-01T12:47:05.032Z</time></trkpt><trkpt lat="44.3416213" lon="7.3868458"><ele>880.7142857142858</ele><time>2026-04-01T12:47:06.031Z</time></trkpt><trkpt lat="44.3416631" lon="7.3867394"><ele>883.5714285714286</ele><time>2026-04-01T12:47:07.02Z</time></trkpt><trkpt lat="44.3417283" lon="7.3867081"><ele>886.4285714285714</ele><time>2026-04-01T12:47:08.034Z</time></trkpt><trkpt lat="44.3417914" lon="7.3866541"><ele>889.2857142857143</ele><time>2026-04-01T12:47:11.017Z</time></trkpt><trkpt lat="44.3417202" lon="7.3866329"><ele>892.1428571428571</ele><time>2026-04-01T12:47:12.024Z</time></trkpt><trkpt lat="44.341662" lon="7.3865753"><ele>895.0</ele><time>2026-04-01T12:47:15.023Z</time></trkpt><trkpt lat="44.3415861" lon="7.3865059"><ele>895.0</ele><time>2026-04-01T12:47:18.027Z</time></trkpt><trkpt lat="44.3414824" lon="7.3863739"><ele>895.0</ele><time>2026-04-01T12:47:19.03Z</time></trkpt><trkpt lat="44.3413296" lon="7.3862166"><ele>895.0</ele><time>2026-04-01T12:47:20.03Z</time></trkpt><trkpt lat="44.3412203" lon="7.3862383"><ele>895.0</ele><time>2026-04-01T12:47:22.025Z</time></trkpt><trkpt lat="44.3411691" lon="7.3862903"><ele>895.6</ele><time>2026-04-01T12:47:23.025Z</time></trkpt><trkpt lat="44.3410407" lon="7.3863279"><ele>896.2</ele><time>2026-04-01T12:47:25.031Z</time></trkpt><trkpt lat="44.3409705" lon="7.3862947"><ele>896.8</ele><time>2026-04-01T12:47:26.03Z</time></trkpt><trkpt lat="44.3408926" lon="7.3862114"><ele>897.4</ele><time>2026-04-01T12:47:27.031Z</time></trkpt><trkpt lat="44.3407848" lon="7.3861297"><ele>898.0</ele><time>2026-04-01T12:47:28.025Z</time></trkpt><trkpt lat="44.3406868" lon="7.386035"><ele>898.0</ele><time>2026-04-01T12:47:29.024Z</time></trkpt><trkpt lat="44.3405964" lon="7.3859418"><ele>898.0</ele><time>2026-04-01T12:47:30.033Z</time></trkpt><trkpt lat="44.340524" lon="7.3858305"><ele>898.0</ele><time>2026-04-01T12:47:31.031Z</time></trkpt><trkpt lat="44.3404713" lon="7.3857185"><ele>898.0</ele><time>2026-04-01T12:47:32.032Z</time></trkpt><trkpt lat="44.3404053" lon="7.3855729"><ele>898.0</ele><time>2026-04-01T12:47:33.035Z</time></trkpt><trkpt lat="44.340341" lon="7.3854002"><ele>897.5</ele><time>2026-04-01T12:47:34.028Z</time></trkpt><trkpt lat="44.3402853" lon="7.3852284"><ele>897.0</ele><time>2026-04-01T12:47:35.022Z</time></trkpt><trkpt lat="44.3402495" lon="7.3850646"><ele>896.5</ele><time>2026-04-01T12:47:36.028Z</time></trkpt><trkpt lat="44.3402086" lon="7.3848984"><ele>896.0</ele><time>2026-04-01T12:47:37.029Z</time></trkpt><trkpt lat="44.3401443" lon="7.3847226"><ele>899.75</ele><time>2026-04-01T12:47:38.037Z</time></trkpt><trkpt lat="44.3400582" lon="7.3845556"><ele>903.5</ele><time>2026-04-01T12:47:39.03Z</time></trkpt><trkpt lat="44.3399822" lon="7.3843634"><ele>907.25</ele><time>2026-04-01T12:47:40.026Z</time></trkpt><trkpt lat="44.3399205" lon="7.3841823"><ele>911.0</ele><time>2026-04-01T12:47:41.027Z</time></trkpt><trkpt lat="44.3398602" lon="7.3840231"><ele>911.0</ele><time>2026-04-01T12:47:42.027Z</time></trkpt><trkpt lat="44.3397983" lon="7.3839028"><ele>910.9999999999999</ele><time>2026-04-01T12:47:43.027Z</time></trkpt><trkpt lat="44.3397232" lon="7.3838314"><ele>910.9999999999999</ele><time>2026-04-01T12:47:44.032Z</time></trkpt><trkpt lat="44.3397007" lon="7.3836843"><ele>911.0</ele><time>2026-04-01T12:47:46.028Z</time></trkpt><trkpt lat="44.3397241" lon="7.3835571"><ele>911.0</ele><time>2026-04-01T12:47:48.026Z</time></trkpt><trkpt lat="44.3398071" lon="7.3834133"><ele>912.5999999999999</ele><time>2026-04-01T12:47:49.027Z</time></trkpt><trkpt lat="44.3398574" lon="7.3833314"><ele>914.1999999999999</ele><time>2026-04-01T12:47:50.04Z</time></trkpt><trkpt lat="44.339878" lon="7.3831857"><ele>915.8000000000001</ele><time>2026-04-01T12:47:52.027Z</time></trkpt><trkpt lat="44.339865" lon="7.3830984"><ele>917.4000000000001</ele><time>2026-04-01T12:47:53.026Z</time></trkpt><trkpt lat="44.3397935" lon="7.3829646"><ele>919.0</ele><time>2026-04-01T12:47:54.032Z</time></trkpt><trkpt lat="44.3397498" lon="7.3828344"><ele>919.0</ele><time>2026-04-01T12:47:55.033Z</time></trkpt><trkpt lat="44.3397152" lon="7.3827142"><ele>919.0000000000001</ele><time>2026-04-01T12:47:56.031Z</time></trkpt><trkpt lat="44.3396953" lon="7.38259"><ele>919.0000000000001</ele><time>2026-04-01T12:47:57.034Z</time></trkpt><trkpt lat="44.3397158" lon="7.382463"><ele>919.0</ele><time>2026-04-01T12:47:58.023Z</time></trkpt><trkpt lat="44.3397601" lon="7.3823409"><ele>919.0</ele><time>2026-04-01T12:47:59.025Z</time></trkpt><trkpt lat="44.3398221" lon="7.3821962"><ele>917.0</ele><time>2026-04-01T12:48:00.108Z</time></trkpt><trkpt lat="44.3399018" lon="7.3820797"><ele>915.0000000000001</ele><time>2026-04-01T12:48:01.025Z</time></trkpt><trkpt lat="44.3399825" lon="7.3820065"><ele>913.0000000000001</ele><time>2026-04-01T12:48:02.037Z</time></trkpt><trkpt lat="44.3400699" lon="7.3819384"><ele>911.0</ele><time>2026-04-01T12:48:03.027Z</time></trkpt><trkpt lat="44.3401095" lon="7.3818568"><ele>909.0</ele><time>2026-04-01T12:48:04.03Z</time></trkpt><trkpt lat="44.3401319" lon="7.3817678"><ele>909.0</ele><time>2026-04-01T12:48:05.032Z</time></trkpt><trkpt lat="44.3401558" lon="7.381655"><ele>909.0</ele><time>2026-04-01T12:48:06.026Z</time></trkpt><trkpt lat="44.3401972" lon="7.3815547"><ele>909.0</ele><time>2026-04-01T12:48:07.025Z</time></trkpt><trkpt lat="44.3402671" lon="7.3814865"><ele>909.0</ele><time>2026-04-01T12:48:08.029Z</time></trkpt><trkpt lat="44.340332" lon="7.3814187"><ele>909.0</ele><time>2026-04-01T12:48:09.05Z</time></trkpt><trkpt lat="44.3404432" lon="7.3813756"><ele>909.0</ele><time>2026-04-01T12:48:10.031Z</time></trkpt><trkpt lat="44.3405469" lon="7.3813315"><ele>908.6</ele><time>2026-04-01T12:48:11.035Z</time></trkpt><trkpt lat="44.3406506" lon="7.3812931"><ele>908.2</ele><time>2026-04-01T12:48:12.026Z</time></trkpt><trkpt lat="44.3407475" lon="7.3812594"><ele>907.8000000000001</ele><time>2026-04-01T12:48:13.025Z</time></trkpt><trkpt lat="44.3408341" lon="7.3812087"><ele>907.4000000000001</ele><time>2026-04-01T12:48:14.024Z</time></trkpt><trkpt lat="44.3409296" lon="7.3811638"><ele>907.0</ele><time>2026-04-01T12:48:15.026Z</time></trkpt><trkpt lat="44.3410417" lon="7.3811383"><ele>907.0</ele><time>2026-04-01T12:48:16.026Z</time></trkpt><trkpt lat="44.341174" lon="7.3811287"><ele>907.0</ele><time>2026-04-01T12:48:17.028Z</time></trkpt><trkpt lat="44.3412505" lon="7.3810926"><ele>907.0</ele><time>2026-04-01T12:48:18.029Z</time></trkpt><trkpt lat="44.3413145" lon="7.3810439"><ele>907.0</ele><time>2026-04-01T12:48:19.028Z</time></trkpt><trkpt lat="44.3413683" lon="7.3809966"><ele>907.0</ele><time>2026-04-01T12:48:20.034Z</time></trkpt><trkpt lat="44.3414661" lon="7.3808899"><ele>909.6</ele><time>2026-04-01T12:48:22.029Z</time></trkpt><trkpt lat="44.3415341" lon="7.380823"><ele>912.2</ele><time>2026-04-01T12:48:23.025Z</time></trkpt><trkpt lat="44.3416112" lon="7.380816"><ele>914.8</ele><time>2026-04-01T12:48:24.03Z</time></trkpt><trkpt lat="44.3416728" lon="7.3807864"><ele>917.4</ele><time>2026-04-01T12:48:25.023Z</time></trkpt><trkpt lat="44.3418661" lon="7.3808541"><ele>920.0</ele><time>2026-04-01T12:48:28.028Z</time></trkpt><trkpt lat="44.3419447" lon="7.3808724"><ele>920.0000000000001</ele><time>2026-04-01T12:48:29.037Z</time></trkpt><trkpt lat="44.3420365" lon="7.3808793"><ele>920.0</ele><time>2026-04-01T12:48:30.028Z</time></trkpt><trkpt lat="44.342116" lon="7.3808851"><ele>920.0</ele><time>2026-04-01T12:48:31.035Z</time></trkpt><trkpt lat="44.342172" lon="7.380777"><ele>920.0</ele><time>2026-04-01T12:48:32.027Z</time></trkpt><trkpt lat="44.3422569" lon="7.3807259"><ele>920.0000000000001</ele><time>2026-04-01T12:48:33.031Z</time></trkpt><trkpt lat="44.3423128" lon="7.3806843"><ele>920.0</ele><time>2026-04-01T12:48:34.026Z</time></trkpt><trkpt lat="44.3422973" lon="7.3805953"><ele>918.2</ele><time>2026-04-01T12:48:35.028Z</time></trkpt><trkpt lat="44.3422543" lon="7.3804072"><ele>916.4</ele><time>2026-04-01T12:48:37.028Z</time></trkpt><trkpt lat="44.3422381" lon="7.3802973"><ele>914.5999999999999</ele><time>2026-04-01T12:48:38.036Z</time></trkpt><trkpt lat="44.3421951" lon="7.3801578"><ele>912.8</ele><time>2026-04-01T12:48:39.03Z</time></trkpt><trkpt lat="44.3421635" lon="7.380012"><ele>911.0</ele><time>2026-04-01T12:48:40.034Z</time></trkpt><trkpt lat="44.3421407" lon="7.3798914"><ele>911.0000000000001</ele><time>2026-04-01T12:48:41.025Z</time></trkpt><trkpt lat="44.3421292" lon="7.379783"><ele>911.0</ele><time>2026-04-01T12:48:42.026Z</time></trkpt><trkpt lat="44.3421331" lon="7.379689"><ele>911.0</ele><time>2026-04-01T12:48:43.031Z</time></trkpt><trkpt lat="44.3422323" lon="7.3795822"><ele>911.0</ele><time>2026-04-01T12:48:45.034Z</time></trkpt><trkpt lat="44.3422984" lon="7.3795504"><ele>911.0000000000001</ele><time>2026-04-01T12:48:46.032Z</time></trkpt><trkpt lat="44.3423633" lon="7.3794974"><ele>911.0</ele><time>2026-04-01T12:48:48.026Z</time></trkpt><trkpt lat="44.342346" lon="7.379361"><ele>911.25</ele><time>2026-04-01T12:48:51.023Z</time></trkpt><trkpt lat="44.3422748" lon="7.3792771"><ele>911.5</ele><time>2026-04-01T12:48:54.028Z</time></trkpt><trkpt lat="44.3422235" lon="7.3791941"><ele>911.75</ele><time>2026-04-01T12:48:56.027Z</time></trkpt><trkpt lat="44.342162" lon="7.3790363"><ele>912.0</ele><time>2026-04-01T12:48:57.028Z</time></trkpt><trkpt lat="44.342031" lon="7.3786886"><ele>912.3333333333334</ele><time>2026-04-01T12:48:58.025Z</time></trkpt><trkpt lat="44.3420307" lon="7.3785954"><ele>912.6666666666667</ele><time>2026-04-01T12:48:59.018Z</time></trkpt><trkpt lat="44.3420394" lon="7.3785071"><ele>913.0</ele><time>2026-04-01T12:49:01.031Z</time></trkpt><trkpt lat="44.3420369" lon="7.3784097"><ele>913.3333333333334</ele><time>2026-04-01T12:49:31.027Z</time></trkpt><trkpt lat="44.3420578" lon="7.3783215"><ele>913.6666666666667</ele><time>2026-04-01T12:49:34.028Z</time></trkpt><trkpt lat="44.3421029" lon="7.3782062"><ele>914.0</ele><time>2026-04-01T12:49:37.029Z</time></trkpt><trkpt lat="44.3425225" lon="7.3775734"><ele>921.6</ele><time>2026-04-01T12:49:39.03Z</time></trkpt><trkpt lat="44.3425326" lon="7.3774733"><ele>929.2</ele><time>2026-04-01T12:49:40.02Z</time></trkpt><trkpt lat="44.3425011" lon="7.3773305"><ele>936.8000000000001</ele><time>2026-04-01T12:49:41.021Z</time></trkpt><trkpt lat="44.342516" lon="7.3772033"><ele>944.4000000000001</ele><time>2026-04-01T12:49:42.3Z</time></trkpt><trkpt lat="44.3424672" lon="7.3769787"><ele>952.0</ele><time>2026-04-01T12:49:44.033Z</time></trkpt><trkpt lat="44.3423961" lon="7.376883"><ele>953.4999999999999</ele><time>2026-04-01T12:49:45.028Z</time></trkpt><trkpt lat="44.3423612" lon="7.3767992"><ele>955.0</ele><time>2026-04-01T12:49:46.032Z</time></trkpt><trkpt lat="44.3423303" lon="7.3767109"><ele>956.5</ele><time>2026-04-01T12:49:47.025Z</time></trkpt><trkpt lat="44.3423226" lon="7.3765768"><ele>958.0</ele><time>2026-04-01T12:49:48.026Z</time></trkpt><trkpt lat="44.3423121" lon="7.3764558"><ele>959.4999999999999</ele><time>2026-04-01T12:49:49.029Z</time></trkpt><trkpt lat="44.3422824" lon="7.3763665"><ele>961.0</ele><time>2026-04-01T12:49:50.03Z</time></trkpt><trkpt lat="44.3422472" lon="7.3762777"><ele>961.4</ele><time>2026-04-01T12:49:51.023Z</time></trkpt><trkpt lat="44.3422132" lon="7.3761657"><ele>961.8</ele><time>2026-04-01T12:49:53.026Z</time></trkpt><trkpt lat="44.3422954" lon="7.3761213"><ele>962.1999999999999</ele><time>2026-04-01T12:49:55.028Z</time></trkpt><trkpt lat="44.3423615" lon="7.376121"><ele>962.5999999999999</ele><time>2026-04-01T12:49:57.026Z</time></trkpt><trkpt lat="44.3424295" lon="7.3761917"><ele>963.0</ele><time>2026-04-01T12:50:01.025Z</time></trkpt><trkpt lat="44.3425401" lon="7.3763321"><ele>963.0</ele><time>2026-04-01T12:50:02.028Z</time></trkpt><trkpt lat="44.3426542" lon="7.3763836"><ele>963.0</ele><time>2026-04-01T12:50:03.027Z</time></trkpt><trkpt lat="44.3427488" lon="7.3764284"><ele>963.0</ele><time>2026-04-01T12:50:05.022Z</time></trkpt><trkpt lat="44.3428197" lon="7.3763377"><ele>963.0</ele><time>2026-04-01T12:50:07.027Z</time></trkpt><trkpt lat="44.3428311" lon="7.3762495"><ele>963.0</ele><time>2026-04-01T12:50:10.027Z</time></trkpt><trkpt lat="44.3428529" lon="7.3760808"><ele>963.0</ele><time>2026-04-01T12:50:12.026Z</time></trkpt><trkpt lat="44.342912" lon="7.3758973"><ele>963.0</ele><time>2026-04-01T12:50:13.029Z</time></trkpt><trkpt lat="44.3429275" lon="7.3756986"><ele>963.0</ele><time>2026-04-01T12:50:14.028Z</time></trkpt><trkpt lat="44.3429841" lon="7.3755494"><ele>963.0</ele><time>2026-04-01T12:50:16.023Z</time></trkpt><trkpt lat="44.3430193" lon="7.375473"><ele>963.857142857143</ele><time>2026-04-01T12:50:17.028Z</time></trkpt><trkpt lat="44.3430569" lon="7.3754014"><ele>964.7142857142858</ele><time>2026-04-01T12:50:18.03Z</time></trkpt><trkpt lat="44.3431114" lon="7.3753186"><ele>965.5714285714286</ele><time>2026-04-01T12:50:19.029Z</time></trkpt><trkpt lat="44.3431483" lon="7.3752175"><ele>966.4285714285714</ele><time>2026-04-01T12:50:20.03Z</time></trkpt><trkpt lat="44.3431767" lon="7.37512"><ele>967.2857142857142</ele><time>2026-04-01T12:50:21.031Z</time></trkpt><trkpt lat="44.3431864" lon="7.3750178"><ele>968.142857142857</ele><time>2026-04-01T12:50:22.032Z</time></trkpt><trkpt lat="44.3432093" lon="7.3749271"><ele>968.9999999999999</ele><time>2026-04-01T12:50:23.031Z</time></trkpt><trkpt lat="44.3432296" lon="7.3748309"><ele>969.0</ele><time>2026-04-01T12:50:24.024Z</time></trkpt><trkpt lat="44.343267" lon="7.3747496"><ele>969.0</ele><time>2026-04-01T12:50:25.029Z</time></trkpt><trkpt lat="44.3433229" lon="7.3746657"><ele>969.0</ele><time>2026-04-01T12:50:26.031Z</time></trkpt><trkpt lat="44.3433826" lon="7.3745729"><ele>969.0</ele><time>2026-04-01T12:50:27.03Z</time></trkpt><trkpt lat="44.3434383" lon="7.3744879"><ele>969.0</ele><time>2026-04-01T12:50:28.033Z</time></trkpt><trkpt lat="44.3434955" lon="7.3743897"><ele>969.0</ele><time>2026-04-01T12:50:29.028Z</time></trkpt><trkpt lat="44.34355" lon="7.374318"><ele>966.2</ele><time>2026-04-01T12:50:30.031Z</time></trkpt><trkpt lat="44.3436046" lon="7.3742486"><ele>963.4000000000001</ele><time>2026-04-01T12:50:31.026Z</time></trkpt><trkpt lat="44.3436657" lon="7.3742058"><ele>960.6</ele><time>2026-04-01T12:50:33.016Z</time></trkpt><trkpt lat="44.3435945" lon="7.3741028"><ele>957.8</ele><time>2026-04-01T12:50:35.03Z</time></trkpt><trkpt lat="44.3435291" lon="7.374032"><ele>955.0</ele><time>2026-04-01T12:50:37.03Z</time></trkpt><trkpt lat="44.343427" lon="7.373933"><ele>956.6666666666666</ele><time>2026-04-01T12:50:39.027Z</time></trkpt><trkpt lat="44.3432786" lon="7.3737281"><ele>958.3333333333333</ele><time>2026-04-01T12:50:40.027Z</time></trkpt><trkpt lat="44.3431813" lon="7.3735858"><ele>960.0</ele><time>2026-04-01T12:50:41.027Z</time></trkpt><trkpt lat="44.3430607" lon="7.3734477"><ele>956.4</ele><time>2026-04-01T12:50:42.03Z</time></trkpt><trkpt lat="44.342984" lon="7.3733649"><ele>952.8</ele><time>2026-04-01T12:50:43.022Z</time></trkpt><trkpt lat="44.3429232" lon="7.3732843"><ele>949.2</ele><time>2026-04-01T12:50:44.03Z</time></trkpt><trkpt lat="44.3428762" lon="7.3731879"><ele>945.6</ele><time>2026-04-01T12:50:45.032Z</time></trkpt><trkpt lat="44.3428681" lon="7.3730484"><ele>942.0</ele><time>2026-04-01T12:50:46.033Z</time></trkpt><trkpt lat="44.3428548" lon="7.3729047"><ele>942.0</ele><time>2026-04-01T12:50:47.027Z</time></trkpt><trkpt lat="44.3428385" lon="7.3727601"><ele>942.0</ele><time>2026-04-01T12:50:48.03Z</time></trkpt><trkpt lat="44.3427583" lon="7.3726238"><ele>942.0</ele><time>2026-04-01T12:50:49.029Z</time></trkpt><trkpt lat="44.3426723" lon="7.3725083"><ele>942.0</ele><time>2026-04-01T12:50:50.032Z</time></trkpt><trkpt lat="44.342586" lon="7.3724063"><ele>942.0</ele><time>2026-04-01T12:50:51.032Z</time></trkpt><trkpt lat="44.3424852" lon="7.3723474"><ele>942.0</ele><time>2026-04-01T12:50:52.035Z</time></trkpt><trkpt lat="44.342385" lon="7.3722824"><ele>942.0</ele><time>2026-04-01T12:50:53.031Z</time></trkpt><trkpt lat="44.3422965" lon="7.3722109"><ele>942.0</ele><time>2026-04-01T12:50:54.029Z</time></trkpt><trkpt lat="44.3422183" lon="7.3721465"><ele>942.0</ele><time>2026-04-01T12:50:55.029Z</time></trkpt><trkpt lat="44.3421417" lon="7.372093"><ele>936.6666666666666</ele><time>2026-04-01T12:50:56.025Z</time></trkpt><trkpt lat="44.3420715" lon="7.3720393"><ele>931.3333333333333</ele><time>2026-04-01T12:50:57.03Z</time></trkpt><trkpt lat="44.3420216" lon="7.3719661"><ele>926.0</ele><time>2026-04-01T12:50:58.028Z</time></trkpt><trkpt lat="44.3419945" lon="7.3718692"><ele>920.6666666666666</ele><time>2026-04-01T12:50:59.03Z</time></trkpt><trkpt lat="44.3419788" lon="7.3717544"><ele>915.3333333333333</ele><time>2026-04-01T12:51:00.031Z</time></trkpt><trkpt lat="44.3420092" lon="7.3716165"><ele>910.0</ele><time>2026-04-01T12:51:01.031Z</time></trkpt><trkpt lat="44.342059" lon="7.3714913"><ele>910.0</ele><time>2026-04-01T12:51:02.028Z</time></trkpt><trkpt lat="44.3421073" lon="7.371367"><ele>910.0</ele><time>2026-04-01T12:51:03.029Z</time></trkpt><trkpt lat="44.3421641" lon="7.3712511"><ele>910.0</ele><time>2026-04-01T12:51:04.024Z</time></trkpt><trkpt lat="44.3422357" lon="7.3711202"><ele>910.0</ele><time>2026-04-01T12:51:05.026Z</time></trkpt><trkpt lat="44.3422969" lon="7.3709939"><ele>910.0</ele><time>2026-04-01T12:51:06.027Z</time></trkpt><trkpt lat="44.3423692" lon="7.3708753"><ele>925.0</ele><time>2026-04-01T12:51:07.031Z</time></trkpt><trkpt lat="44.3424443" lon="7.370747"><ele>925.0</ele><time>2026-04-01T12:51:08.025Z</time></trkpt></trkseg></trk></gpx>